Terminal Aerodrome Forecast
Issued by NWS

Home | Current Version | Previous Version | Text Only | Print | Product List | Glossary On
Versions: 1 2 3 4 5 6 7 8 9 10 11 12 13 14 15 16 17 18 19 20 21 22 23 24 25 26 27 28 29 30 31 32
000
FTAK31 PANC 152330
TAFADU
TAF
PADU 152330Z 1600/1624 VRB06KT P6SM SCT025 BKN080
     FM160200 16011KT 6SM -RA SCT015 OVC025
     FM160800 27010KT P6SM -SHRA SCT015 BKN025
     FM161600 27014KT P6SM VCSH SCT025 BKN035=

USA.gov is the U.S. government's official web portal to all federal, state and local government web resources and services.